Aeroporto :
LOGIN :

Iscrizione | Disclaimer

   EN    FR    IT 

 










Sommario :    VFR   VFR Marginale   IFR   IFR Intensivo   IFR Molto Intensivo
Visibilità : 
Base nubi : 
>= 8 km
>= 3000ft
5 / 8 km
1000 / 3000 ft
1500m / 5 km
500 / 1000 ft
800 / 1500m
200 / 500 ft
< 800m
< 200 ft
Simboli :   Temporali  Nebbia  Neve Forte  Precipitazioni Forti  Vento > 20 kt
SIGMETs :   Varie  Temporali  Ghiacco  Turbolenza  Onda orograficha  Ceneri Vulcaniche






- Altitudine del aeroporto : 1411 ft
- Codice IATA : SZG


LOWS - Salzburg

ULTIMO METAR :
  • 301550Z 33004KT 280V020 9999 FEW015 SCT034 BKN050 02/M03 Q1023 NOSIG

METARs OBSOLETI :
  • 301420Z 02006KT 330V050 9999 FEW012 BKN028 BKN045 02/M04 Q1023 NOSIG
  • 301350Z 02007KT 9999 FEW012 BKN026 BKN045 02/M04 Q1023 NOSIG
  • 301320Z 02007KT 360V060 9999 FEW012 BKN026 BKN040 02/M03 Q1023 NOSIG

TAF TAF LOWS
Valido dal 30 a 12 ore il 31 a 12 ore UTC


301115Z 3012/3112 02007KT 9999 SCT020 BKN045 TX05/3112Z TNM05/3103Z
BECMG 3014/3016 FEW050 SCT070
BECMG 3017/3019 15005KT
TEMPO 3020/3106 CAVOK
BECMG 3107/3109 35007KT BKN060
TEMPO 3109/3112 -SHRASN SCT020 BKN040



MetMap, La meteo Aeronautica in un colpo d'occhio ! - Copyright ORBIFLY Dicembre 2007 - Disclaimer

ORBIFLY MET'MAP TEAM :

Programmazione e sviluppo : Alexandra Zaïnal
Concezione : Baudouin d'Aumeries
Aiuto per la programmazione : Marc-Olivier Méhu
Supporto tecnico e logistico : Manuel Goepfert
Aiuto per la traduzione : Arnaldo La Scala

Contatto : metmap@orbifly.com




FONTI E CREDITI :

   NOAA